sensor_id;sensor_type;location;lat;lon;timestamp;pressure;altitude;pressure_sealevel;temperature;humidity
47726;BME280;33483;48.294;16.388;2023-03-16T00:02:22;99942.75;;;1.99;100.00
47726;BME280;33483;48.294;16.388;2023-03-16T00:04:50;99944.88;;;1.95;100.00
47726;BME280;33483;48.294;16.388;2023-03-16T00:07:17;99956.59;;;1.87;100.00
47726;BME280;33483;48.294;16.388;2023-03-16T00:09:44;99951.75;;;1.82;100.00
47726;BME280;33483;48.294;16.388;2023-03-16T00:12:13;99961.16;;;1.81;100.00
47726;BME280;33483;48.294;16.388;2023-03-16T00:14:43;99961.16;;;1.81;100.00
47726;BME280;33483;48.294;16.388;2023-03-16T00:17:11;99964.06;;;1.77;100.00
47726;BME280;33483;48.294;16.388;2023-03-16T00:22:13;99969.97;;;1.76;100.00
47726;BME280;33483;48.294;16.388;2023-03-16T00:24:43;99976.94;;;1.77;100.00
47726;BME280;33483;48.294;16.388;2023-03-16T00:27:10;99970.13;;;1.72;100.00
47726;BME280;33483;48.294;16.388;2023-03-16T00:29:41;99969.69;;;1.65;100.00
47726;BME280;33483;48.294;16.388;2023-03-16T00:32:13;99976.94;;;1.68;100.00
47726;BME280;33483;48.294;16.388;2023-03-16T00:34:42;99976.22;;;1.67;100.00
47726;BME280;33483;48.294;16.388;2023-03-16T00:37:10;99971.19;;;1.66;100.00
47726;BME280;33483;48.294;16.388;2023-03-16T00:39:43;99973.03;;;1.60;100.00
47726;BME280;33483;48.294;16.388;2023-03-16T00:42:12;99975.91;;;1.56;100.00
47726;BME280;33483;48.294;16.388;2023-03-16T00:44:40;99977.88;;;1.56;100.00
47726;BME280;33483;48.294;16.388;2023-03-16T00:47:10;99980.44;;;1.50;100.00
47726;BME280;33483;48.294;16.388;2023-03-16T00:49:41;99978.63;;;1.47;100.00
47726;BME280;33483;48.294;16.388;2023-03-16T00:52:11;99980.75;;;1.43;100.00
47726;BME280;33483;48.294;16.388;2023-03-16T00:54:42;99971.03;;;1.33;100.00
47726;BME280;33483;48.294;16.388;2023-03-16T00:57:10;99981.97;;;1.33;100.00
47726;BME280;33483;48.294;16.388;2023-03-16T00:59:38;99984.38;;;1.31;100.00
47726;BME280;33483;48.294;16.388;2023-03-16T01:02:05;99986.53;;;1.27;100.00
47726;BME280;33483;48.294;16.388;2023-03-16T01:04:33;99989.41;;;1.24;100.00
47726;BME280;33483;48.294;16.388;2023-03-16T01:07:02;99990.75;;;1.19;100.00
47726;BME280;33483;48.294;16.388;2023-03-16T01:09:32;99992.09;;;1.14;100.00
47726;BME280;33483;48.294;16.388;2023-03-16T01:12:06;99997.72;;;1.11;100.00
47726;BME280;33483;48.294;16.388;2023-03-16T01:14:34;100002.84;;;1.09;100.00
47726;BME280;33483;48.294;16.388;2023-03-16T01:17:02;99997.69;;;1.02;100.00
47726;BME280;33483;48.294;16.388;2023-03-16T01:19:30;100001.47;;;0.95;100.00
47726;BME280;33483;48.294;16.388;2023-03-16T01:22:03;99992.47;;;0.86;100.00
47726;BME280;33483;48.294;16.388;2023-03-16T01:24:31;99998.84;;;0.83;100.00
47726;BME280;33483;48.294;16.388;2023-03-16T01:26:59;100002.75;;;0.73;100.00
47726;BME280;33483;48.294;16.388;2023-03-16T01:29:27;99997.13;;;0.67;100.00
47726;BME280;33483;48.294;16.388;2023-03-16T01:31:56;100001.50;;;0.65;100.00
47726;BME280;33483;48.294;16.388;2023-03-16T01:34:23;100009.69;;;0.65;100.00
47726;BME280;33483;48.294;16.388;2023-03-16T01:36:50;100005.91;;;0.62;100.00
47726;BME280;33483;48.294;16.388;2023-03-16T01:39:28;100016.03;;;0.62;100.00
47726;BME280;33483;48.294;16.388;2023-03-16T01:41:55;100012.84;;;0.63;100.00
47726;BME280;33483;48.294;16.388;2023-03-16T01:44:26;100017.53;;;0.63;100.00
47726;BME280;33483;48.294;16.388;2023-03-16T01:47:04;100013.50;;;0.67;100.00
47726;BME280;33483;48.294;16.388;2023-03-16T01:49:33;100008.50;;;0.66;100.00
47726;BME280;33483;48.294;16.388;2023-03-16T01:52:06;100009.09;;;0.70;100.00
47726;BME280;33483;48.294;16.388;2023-03-16T01:54:36;100015.75;;;0.69;100.00
47726;BME280;33483;48.294;16.388;2023-03-16T01:57:14;100011.09;;;0.69;100.00
47726;BME280;33483;48.294;16.388;2023-03-16T01:59:57;100007.28;;;0.67;100.00
47726;BME280;33483;48.294;16.388;2023-03-16T02:02:39;100008.19;;;0.64;100.00
47726;BME280;33483;48.294;16.388;2023-03-16T02:05:17;100005.44;;;0.64;100.00
47726;BME280;33483;48.294;16.388;2023-03-16T02:07:47;100014.22;;;0.59;100.00
47726;BME280;33483;48.294;16.388;2023-03-16T02:10:16;100016.94;;;0.59;100.00
47726;BME280;33483;48.294;16.388;2023-03-16T02:12:44;100017.09;;;0.55;100.00
47726;BME280;33483;48.294;16.388;2023-03-16T02:15:12;100014.16;;;0.50;100.00
47726;BME280;33483;48.294;16.388;2023-03-16T02:17:40;100016.59;;;0.48;100.00
47726;BME280;33483;48.294;16.388;2023-03-16T02:22:56;100025.03;;;0.41;100.00
47726;BME280;33483;48.294;16.388;2023-03-16T02:30:45;100025.22;;;0.25;100.00
47726;BME280;33483;48.294;16.388;2023-03-16T02:33:13;100026.13;;;0.22;100.00
47726;BME280;33483;48.294;16.388;2023-03-16T02:35:43;100023.09;;;0.20;100.00
47726;BME280;33483;48.294;16.388;2023-03-16T02:38:12;100025.81;;;0.20;100.00
47726;BME280;33483;48.294;16.388;2023-03-16T02:40:51;100027.03;;;0.19;100.00
47726;BME280;33483;48.294;16.388;2023-03-16T02:43:25;100020.50;;;0.16;100.00
47726;BME280;33483;48.294;16.388;2023-03-16T02:46:03;100026.38;;;0.15;100.00
47726;BME280;33483;48.294;16.388;2023-03-16T02:48:36;100028.34;;;0.14;100.00
47726;BME280;33483;48.294;16.388;2023-03-16T02:51:09;100030.34;;;0.14;100.00
47726;BME280;33483;48.294;16.388;2023-03-16T02:53:37;100027.59;;;0.14;100.00
47726;BME280;33483;48.294;16.388;2023-03-16T02:56:05;100034.56;;;0.15;100.00
47726;BME280;33483;48.294;16.388;2023-03-16T02:58:35;100033.19;;;0.10;100.00
47726;BME280;33483;48.294;16.388;2023-03-16T03:01:08;100040.16;;;0.11;100.00
47726;BME280;33483;48.294;16.388;2023-03-16T03:03:38;100049.97;;;0.09;100.00
47726;BME280;33483;48.294;16.388;2023-03-16T03:06:05;100051.63;;;0.06;100.00
47726;BME280;33483;48.294;16.388;2023-03-16T03:08:34;100051.75;;;0.03;100.00
47726;BME280;33483;48.294;16.388;2023-03-16T03:11:02;100061.88;;;0.02;100.00
47726;BME280;33483;48.294;16.388;2023-03-16T03:13:32;100060.38;;;0.01;100.00
47726;BME280;33483;48.294;16.388;2023-03-16T03:15:59;100069.59;;;0.03;100.00
47726;BME280;33483;48.294;16.388;2023-03-16T03:18:27;100066.88;;;0.03;100.00
47726;BME280;33483;48.294;16.388;2023-03-16T03:20:54;100072.03;;;0.02;100.00
47726;BME280;33483;48.294;16.388;2023-03-16T03:23:24;100072.91;;;-0.02;100.00
47726;BME280;33483;48.294;16.388;2023-03-16T03:25:55;100074.44;;;-0.01;100.00
47726;BME280;33483;48.294;16.388;2023-03-16T03:28:22;100077.72;;;-0.06;100.00
47726;BME280;33483;48.294;16.388;2023-03-16T03:30:50;100076.50;;;-0.05;100.00
47726;BME280;33483;48.294;16.388;2023-03-16T03:33:17;100080.44;;;-0.06;100.00
47726;BME280;33483;48.294;16.388;2023-03-16T03:35:56;100080.78;;;-0.04;100.00
47726;BME280;33483;48.294;16.388;2023-03-16T03:38:25;100083.50;;;-0.04;100.00
47726;BME280;33483;48.294;16.388;2023-03-16T03:40:54;100093.31;;;-0.06;100.00
47726;BME280;33483;48.294;16.388;2023-03-16T03:43:28;100098.44;;;-0.08;100.00
47726;BME280;33483;48.294;16.388;2023-03-16T03:45:56;100095.06;;;-0.12;100.00
47726;BME280;33483;48.294;16.388;2023-03-16T03:48:24;100096.72;;;-0.15;100.00
47726;BME280;33483;48.294;16.388;2023-03-16T03:50:51;100098.34;;;-0.17;100.00
47726;BME280;33483;48.294;16.388;2023-03-16T03:53:41;100095.13;;;-0.25;100.00
47726;BME280;33483;48.294;16.388;2023-03-16T03:56:18;100090.09;;;-0.26;100.00
47726;BME280;33483;48.294;16.388;2023-03-16T03:58:45;100088.69;;;-0.31;100.00
47726;BME280;33483;48.294;16.388;2023-03-16T04:01:18;100081.88;;;-0.35;100.00
47726;BME280;33483;48.294;16.388;2023-03-16T04:03:45;100091.66;;;-0.38;100.00
47726;BME280;33483;48.294;16.388;2023-03-16T04:06:14;100090.88;;;-0.38;100.00
47726;BME280;33483;48.294;16.388;2023-03-16T04:08:41;100091.34;;;-0.40;100.00
47726;BME280;33483;48.294;16.388;2023-03-16T04:11:12;100096.91;;;-0.43;100.00
47726;BME280;33483;48.294;16.388;2023-03-16T04:13:40;100095.81;;;-0.46;100.00
47726;BME280;33483;48.294;16.388;2023-03-16T04:16:08;100104.13;;;-0.49;100.00
47726;BME280;33483;48.294;16.388;2023-03-16T04:18:40;100099.09;;;-0.51;100.00
47726;BME280;33483;48.294;16.388;2023-03-16T04:21:14;100104.97;;;-0.52;100.00
47726;BME280;33483;48.294;16.388;2023-03-16T04:23:45;100105.09;;;-0.56;100.00
47726;BME280;33483;48.294;16.388;2023-03-16T04:26:12;100110.53;;;-0.56;100.00
47726;BME280;33483;48.294;16.388;2023-03-16T04:28:42;100107.81;;;-0.56;100.00
47726;BME280;33483;48.294;16.388;2023-03-16T04:31:13;100112.84;;;-0.54;100.00
47726;BME280;33483;48.294;16.388;2023-03-16T04:33:43;100108.22;;;-0.45;100.00
47726;BME280;33483;48.294;16.388;2023-03-16T04:36:11;100114.34;;;-0.41;100.00
47726;BME280;33483;48.294;16.388;2023-03-16T04:38:41;100116.81;;;-0.34;100.00
47726;BME280;33483;48.294;16.388;2023-03-16T04:41:10;100123.66;;;-0.29;100.00
47726;BME280;33483;48.294;16.388;2023-03-16T04:43:43;100122.59;;;-0.32;100.00
47726;BME280;33483;48.294;16.388;2023-03-16T04:46:18;100128.47;;;-0.33;100.00
47726;BME280;33483;48.294;16.388;2023-03-16T04:48:46;100130.75;;;-0.32;100.00
47726;BME280;33483;48.294;16.388;2023-03-16T04:51:13;100136.09;;;-0.28;100.00
47726;BME280;33483;48.294;16.388;2023-03-16T04:53:50;100136.84;;;-0.28;100.00
47726;BME280;33483;48.294;16.388;2023-03-16T04:56:26;100130.66;;;-0.28;100.00
47726;BME280;33483;48.294;16.388;2023-03-16T04:59:01;100134.88;;;-0.27;100.00
47726;BME280;33483;48.294;16.388;2023-03-16T05:01:34;100152.84;;;-0.30;100.00
47726;BME280;33483;48.294;16.388;2023-03-16T05:04:05;100143.50;;;-0.29;100.00
47726;BME280;33483;48.294;16.388;2023-03-16T05:06:35;100146.97;;;-0.28;100.00
47726;BME280;33483;48.294;16.388;2023-03-16T05:09:08;100155.16;;;-0.28;100.00
47726;BME280;33483;48.294;16.388;2023-03-16T05:11:39;100160.91;;;-0.26;100.00
47726;BME280;33483;48.294;16.388;2023-03-16T05:14:09;100168.66;;;-0.25;100.00
47726;BME280;33483;48.294;16.388;2023-03-16T05:16:50;100171.56;;;-0.19;100.00
47726;BME280;33483;48.294;16.388;2023-03-16T05:19:19;100170.81;;;-0.20;100.00
47726;BME280;33483;48.294;16.388;2023-03-16T05:21:47;100168.31;;;-0.14;100.00
47726;BME280;33483;48.294;16.388;2023-03-16T05:24:14;100172.53;;;-0.13;100.00
47726;BME280;33483;48.294;16.388;2023-03-16T05:26:42;100179.09;;;-0.11;100.00
47726;BME280;33483;48.294;16.388;2023-03-16T05:29:11;100179.25;;;-0.05;100.00
47726;BME280;33483;48.294;16.388;2023-03-16T05:31:39;100186.59;;;-0.02;100.00
47726;BME280;33483;48.294;16.388;2023-03-16T05:34:12;100182.19;;;0.00;100.00
47726;BME280;33483;48.294;16.388;2023-03-16T05:36:40;100181.75;;;0.02;100.00
47726;BME280;33483;48.294;16.388;2023-03-16T05:39:11;100181.19;;;0.07;100.00
47726;BME280;33483;48.294;16.388;2023-03-16T05:41:44;100191.19;;;0.23;100.00
47726;BME280;33483;48.294;16.388;2023-03-16T05:44:23;100184.28;;;0.31;100.00
47726;BME280;33483;48.294;16.388;2023-03-16T05:47:03;100187.78;;;0.31;100.00
47726;BME280;33483;48.294;16.388;2023-03-16T05:49:32;100198.00;;;0.40;100.00
47726;BME280;33483;48.294;16.388;2023-03-16T05:52:04;100199.22;;;0.60;100.00
47726;BME280;33483;48.294;16.388;2023-03-16T05:54:33;100208.03;;;0.86;100.00
47726;BME280;33483;48.294;16.388;2023-03-16T05:57:01;100212.00;;;1.46;100.00
47726;BME280;33483;48.294;16.388;2023-03-16T05:59:28;100207.38;;;1.34;100.00
47726;BME280;33483;48.294;16.388;2023-03-16T06:01:56;100217.44;;;1.15;100.00
47726;BME280;33483;48.294;16.388;2023-03-16T06:04:24;100222.16;;;1.15;100.00
47726;BME280;33483;48.294;16.388;2023-03-16T06:06:53;100218.34;;;1.43;100.00
47726;BME280;33483;48.294;16.388;2023-03-16T06:09:24;100221.31;;;2.52;100.00
47726;BME280;33483;48.294;16.388;2023-03-16T06:11:51;100230.75;;;2.51;100.00
47726;BME280;33483;48.294;16.388;2023-03-16T06:14:19;100225.84;;;2.27;100.00
47726;BME280;33483;48.294;16.388;2023-03-16T06:16:50;100221.00;;;2.22;100.00
47726;BME280;33483;48.294;16.388;2023-03-16T06:19:18;100230.25;;;2.97;100.00
47726;BME280;33483;48.294;16.388;2023-03-16T06:21:50;100241.72;;;5.03;100.00
47726;BME280;33483;48.294;16.388;2023-03-16T06:24:17;100248.41;;;6.44;88.69
47726;BME280;33483;48.294;16.388;2023-03-16T06:26:44;100251.06;;;6.18;81.85
47726;BME280;33483;48.294;16.388;2023-03-16T06:29:15;100261.03;;;6.16;80.39
47726;BME280;33483;48.294;16.388;2023-03-16T06:31:44;100263.41;;;5.88;81.68
47726;BME280;33483;48.294;16.388;2023-03-16T06:34:11;100262.38;;;5.71;82.11
47726;BME280;33483;48.294;16.388;2023-03-16T06:36:39;100257.16;;;4.86;90.05
47726;BME280;33483;48.294;16.388;2023-03-16T06:39:10;100259.56;;;5.36;87.82
47726;BME280;33483;48.294;16.388;2023-03-16T06:41:47;100259.16;;;5.29;81.99
47726;BME280;33483;48.294;16.388;2023-03-16T06:44:15;100271.88;;;5.12;86.76
47726;BME280;33483;48.294;16.388;2023-03-16T06:46:53;100270.72;;;5.47;83.46
47726;BME280;33483;48.294;16.388;2023-03-16T06:49:20;100278.09;;;4.98;86.67
47726;BME280;33483;48.294;16.388;2023-03-16T06:51:47;100280.06;;;4.83;87.52
47726;BME280;33483;48.294;16.388;2023-03-16T06:54:15;100286.75;;;5.93;77.56
47726;BME280;33483;48.294;16.388;2023-03-16T06:56:42;100292.84;;;7.74;65.41
47726;BME280;33483;48.294;16.388;2023-03-16T06:59:12;100295.09;;;9.19;57.04
47726;BME280;33483;48.294;16.388;2023-03-16T07:01:39;100301.88;;;10.39;53.83
47726;BME280;33483;48.294;16.388;2023-03-16T07:04:10;100307.63;;;10.63;51.22
47726;BME280;33483;48.294;16.388;2023-03-16T07:06:40;100306.63;;;11.12;48.92
47726;BME280;33483;48.294;16.388;2023-03-16T07:09:07;100311.50;;;11.42;47.83
47726;BME280;33483;48.294;16.388;2023-03-16T07:11:35;100310.16;;;12.18;45.80
47726;BME280;33483;48.294;16.388;2023-03-16T07:14:02;100319.66;;;11.69;45.93
47726;BME280;33483;48.294;16.388;2023-03-16T07:16:31;100320.03;;;11.49;46.78
47726;BME280;33483;48.294;16.388;2023-03-16T07:19:01;100319.16;;;11.71;45.25
47726;BME280;33483;48.294;16.388;2023-03-16T07:21:28;100320.59;;;12.07;44.76
47726;BME280;33483;48.294;16.388;2023-03-16T07:23:55;100321.13;;;11.76;45.34
47726;BME280;33483;48.294;16.388;2023-03-16T07:26:28;100328.34;;;11.90;44.65
47726;BME280;33483;48.294;16.388;2023-03-16T07:29:00;100327.31;;;12.89;43.18
47726;BME280;33483;48.294;16.388;2023-03-16T07:31:28;100323.41;;;13.53;41.31
47726;BME280;33483;48.294;16.388;2023-03-16T07:33:57;100322.53;;;13.27;40.04
47726;BME280;33483;48.294;16.388;2023-03-16T07:36:34;100326.22;;;13.16;40.80
47726;BME280;33483;48.294;16.388;2023-03-16T07:39:03;100328.56;;;13.12;40.07
47726;BME280;33483;48.294;16.388;2023-03-16T07:41:30;100331.72;;;13.40;39.68
47726;BME280;33483;48.294;16.388;2023-03-16T07:44:13;100334.13;;;13.12;39.66
47726;BME280;33483;48.294;16.388;2023-03-16T07:46:40;100338.50;;;13.26;40.15
47726;BME280;33483;48.294;16.388;2023-03-16T07:49:08;100337.69;;;13.95;38.15
47726;BME280;33483;48.294;16.388;2023-03-16T07:51:37;100344.41;;;14.18;37.79
47726;BME280;33483;48.294;16.388;2023-03-16T07:54:06;100338.59;;;14.60;36.95
47726;BME280;33483;48.294;16.388;2023-03-16T07:56:35;100338.47;;;14.53;36.18
47726;BME280;33483;48.294;16.388;2023-03-16T07:59:25;100340.53;;;14.92;35.90
47726;BME280;33483;48.294;16.388;2023-03-16T08:01:52;100348.03;;;14.71;35.92
47726;BME280;33483;48.294;16.388;2023-03-16T08:04:19;100351.50;;;14.77;35.81
47726;BME280;33483;48.294;16.388;2023-03-16T08:06:47;100348.81;;;14.71;36.02
47726;BME280;33483;48.294;16.388;2023-03-16T08:09:14;100350.91;;;14.26;36.30
47726;BME280;33483;48.294;16.388;2023-03-16T08:11:42;100350.19;;;14.07;36.85
47726;BME280;33483;48.294;16.388;2023-03-16T08:14:09;100355.97;;;14.53;36.64
47726;BME280;33483;48.294;16.388;2023-03-16T08:17:12;100357.13;;;13.50;37.54
47726;BME280;33483;48.294;16.388;2023-03-16T08:19:39;100359.25;;;13.44;37.55
47726;BME280;33483;48.294;16.388;2023-03-16T08:22:08;100359.69;;;13.67;37.50
47726;BME280;33483;48.294;16.388;2023-03-16T08:24:39;100363.38;;;13.37;38.55
47726;BME280;33483;48.294;16.388;2023-03-16T08:27:13;100367.53;;;12.64;39.67
47726;BME280;33483;48.294;16.388;2023-03-16T08:29:46;100372.22;;;11.97;41.15
47726;BME280;33483;48.294;16.388;2023-03-16T08:32:17;100363.91;;;11.51;42.40
47726;BME280;33483;48.294;16.388;2023-03-16T08:34:46;100366.38;;;11.19;42.24
47726;BME280;33483;48.294;16.388;2023-03-16T08:37:17;100356.00;;;10.57;44.44
47726;BME280;33483;48.294;16.388;2023-03-16T08:39:45;100359.84;;;10.09;45.54
47726;BME280;33483;48.294;16.388;2023-03-16T08:42:16;100365.38;;;10.32;45.32
47726;BME280;33483;48.294;16.388;2023-03-16T08:44:47;100359.84;;;9.93;45.20
47726;BME280;33483;48.294;16.388;2023-03-16T08:47:15;100356.81;;;10.02;46.31
47726;BME280;33483;48.294;16.388;2023-03-16T08:49:43;100358.81;;;10.01;46.60
47726;BME280;33483;48.294;16.388;2023-03-16T08:52:13;100356.31;;;10.03;45.45
47726;BME280;33483;48.294;16.388;2023-03-16T08:54:41;100354.06;;;10.18;45.75
47726;BME280;33483;48.294;16.388;2023-03-16T08:57:28;100366.63;;;10.36;45.33
47726;BME280;33483;48.294;16.388;2023-03-16T08:59:55;100364.91;;;10.11;45.03
47726;BME280;33483;48.294;16.388;2023-03-16T09:02:25;100368.38;;;10.39;43.33
47726;BME280;33483;48.294;16.388;2023-03-16T09:04:52;100370.66;;;10.35;43.40
47726;BME280;33483;48.294;16.388;2023-03-16T09:07:19;100372.66;;;9.79;38.63
47726;BME280;33483;48.294;16.388;2023-03-16T09:09:46;100370.66;;;9.91;41.15
47726;BME280;33483;48.294;16.388;2023-03-16T09:12:14;100374.41;;;9.77;40.82
47726;BME280;33483;48.294;16.388;2023-03-16T09:14:43;100371.38;;;9.75;42.54
47726;BME280;33483;48.294;16.388;2023-03-16T09:17:14;100375.38;;;9.46;44.06
47726;BME280;33483;48.294;16.388;2023-03-16T09:19:41;100363.84;;;9.70;43.25
47726;BME280;33483;48.294;16.388;2023-03-16T09:22:19;100364.59;;;9.92;43.75
47726;BME280;33483;48.294;16.388;2023-03-16T09:24:47;100372.13;;;9.59;45.21
47726;BME280;33483;48.294;16.388;2023-03-16T09:27:14;100372.69;;;9.85;45.19
47726;BME280;33483;48.294;16.388;2023-03-16T09:29:42;100376.16;;;9.80;43.63
47726;BME280;33483;48.294;16.388;2023-03-16T09:32:09;100371.88;;;9.57;44.61
47726;BME280;33483;48.294;16.388;2023-03-16T09:34:37;100365.19;;;9.04;45.02
47726;BME280;33483;48.294;16.388;2023-03-16T09:37:05;100372.63;;;8.87;46.66
47726;BME280;33483;48.294;16.388;2023-03-16T09:39:32;100373.41;;;8.88;44.79
47726;BME280;33483;48.294;16.388;2023-03-16T09:42:05;100362.19;;;9.13;46.00
47726;BME280;33483;48.294;16.388;2023-03-16T09:47:09;100367.31;;;9.43;44.69
47726;BME280;33483;48.294;16.388;2023-03-16T09:49:42;100365.59;;;9.62;43.82
47726;BME280;33483;48.294;16.388;2023-03-16T09:52:54;100361.34;;;9.83;44.79
47726;BME280;33483;48.294;16.388;2023-03-16T09:57:39;100355.81;;;10.05;41.59
47726;BME280;33483;48.294;16.388;2023-03-16T10:00:19;100360.59;;;10.15;43.14
47726;BME280;33483;48.294;16.388;2023-03-16T10:05:36;100364.25;;;9.30;42.37
47726;BME280;33483;48.294;16.388;2023-03-16T10:13:26;100366.63;;;9.75;42.15
47726;BME280;33483;48.294;16.388;2023-03-16T10:15:55;100364.78;;;9.39;41.79
47726;BME280;33483;48.294;16.388;2023-03-16T10:18:25;100370.38;;;8.38;43.26
47726;BME280;33483;48.294;16.388;2023-03-16T10:20:56;100373.13;;;8.38;43.64
47726;BME280;33483;48.294;16.388;2023-03-16T10:23:24;100365.38;;;8.90;42.38
47726;BME280;33483;48.294;16.388;2023-03-16T10:25:52;100368.47;;;9.03;43.01
47726;BME280;33483;48.294;16.388;2023-03-16T10:30:48;100360.34;;;9.97;41.82
47726;BME280;33483;48.294;16.388;2023-03-16T10:33:23;100360.09;;;10.11;42.86
47726;BME280;33483;48.294;16.388;2023-03-16T10:38:27;100361.06;;;9.64;41.42
47726;BME280;33483;48.294;16.388;2023-03-16T10:40:56;100375.03;;;9.17;42.35
47726;BME280;33483;48.294;16.388;2023-03-16T10:43:24;100360.44;;;9.10;41.81
47726;BME280;33483;48.294;16.388;2023-03-16T10:45:51;100362.25;;;9.30;41.92
47726;BME280;33483;48.294;16.388;2023-03-16T10:48:26;100370.59;;;9.52;40.38
47726;BME280;33483;48.294;16.388;2023-03-16T10:50:54;100364.56;;;9.48;41.48
47726;BME280;33483;48.294;16.388;2023-03-16T10:53:29;100357.53;;;9.58;41.67
47726;BME280;33483;48.294;16.388;2023-03-16T10:55:59;100363.09;;;9.75;40.64
47726;BME280;33483;48.294;16.388;2023-03-16T10:58:29;100358.56;;;9.94;40.50
47726;BME280;33483;48.294;16.388;2023-03-16T11:00:56;100363.06;;;9.69;38.94
47726;BME280;33483;48.294;16.388;2023-03-16T11:03:36;100361.06;;;9.75;41.34
47726;BME280;33483;48.294;16.388;2023-03-16T11:06:05;100351.00;;;9.89;40.24
47726;BME280;33483;48.294;16.388;2023-03-16T11:08:34;100349.78;;;9.95;40.56
47726;BME280;33483;48.294;16.388;2023-03-16T11:11:07;100354.53;;;9.78;40.49
47726;BME280;33483;48.294;16.388;2023-03-16T11:13:36;100347.22;;;10.36;40.26
47726;BME280;33483;48.294;16.388;2023-03-16T11:18:54;100358.75;;;10.62;40.17
47726;BME280;33483;48.294;16.388;2023-03-16T11:24:05;100353.75;;;9.61;36.64
47726;BME280;33483;48.294;16.388;2023-03-16T11:26:37;100354.03;;;9.63;36.49
47726;BME280;33483;48.294;16.388;2023-03-16T11:31:41;100342.66;;;9.50;38.87
47726;BME280;33483;48.294;16.388;2023-03-16T11:34:16;100338.19;;;9.86;40.35
47726;BME280;33483;48.294;16.388;2023-03-16T11:44:21;100330.38;;;9.84;38.68
47726;BME280;33483;48.294;16.388;2023-03-16T11:47:02;100315.03;;;9.67;39.44
47726;BME280;33483;48.294;16.388;2023-03-16T11:52:20;100317.78;;;10.00;40.92
47726;BME280;33483;48.294;16.388;2023-03-16T12:02:38;100311.22;;;9.37;38.52
47726;BME280;33483;48.294;16.388;2023-03-16T12:07:47;100300.31;;;9.00;39.65
47726;BME280;33483;48.294;16.388;2023-03-16T12:15:48;100304.94;;;9.42;39.19
47726;BME280;33483;48.294;16.388;2023-03-16T12:20:49;100297.91;;;9.41;38.48
47726;BME280;33483;48.294;16.388;2023-03-16T12:23:23;100289.28;;;9.05;39.56
47726;BME280;33483;48.294;16.388;2023-03-16T12:25:54;100282.28;;;9.21;39.21
47726;BME280;33483;48.294;16.388;2023-03-16T12:28:26;100278.28;;;9.50;38.90
47726;BME280;33483;48.294;16.388;2023-03-16T12:33:26;100280.28;;;9.27;38.83
47726;BME280;33483;48.294;16.388;2023-03-16T12:46:58;100273.16;;;8.98;38.96
47726;BME280;33483;48.294;16.388;2023-03-16T12:49:26;100272.44;;;9.09;38.90
47726;BME280;33483;48.294;16.388;2023-03-16T12:51:59;100264.69;;;9.19;37.92
47726;BME280;33483;48.294;16.388;2023-03-16T12:54:27;100267.97;;;9.34;40.02
47726;BME280;33483;48.294;16.388;2023-03-16T12:57:07;100268.47;;;9.43;38.30
47726;BME280;33483;48.294;16.388;2023-03-16T12:59:38;100271.00;;;9.41;38.16
47726;BME280;33483;48.294;16.388;2023-03-16T13:02:11;100265.19;;;9.34;37.41
47726;BME280;33483;48.294;16.388;2023-03-16T13:04:40;100263.19;;;9.29;37.90
47726;BME280;33483;48.294;16.388;2023-03-16T13:07:16;100248.09;;;9.30;39.39
47726;BME280;33483;48.294;16.388;2023-03-16T13:09:46;100255.38;;;9.27;38.92
47726;BME280;33483;48.294;16.388;2023-03-16T13:14:54;100250.03;;;9.01;36.82
47726;BME280;33483;48.294;16.388;2023-03-16T13:17:26;100243.78;;;9.18;37.26
47726;BME280;33483;48.294;16.388;2023-03-16T13:22:26;100246.59;;;9.34;38.26
47726;BME280;33483;48.294;16.388;2023-03-16T13:24:54;100245.59;;;9.48;37.75
47726;BME280;33483;48.294;16.388;2023-03-16T13:27:28;100248.38;;;9.48;37.88
47726;BME280;33483;48.294;16.388;2023-03-16T13:29:57;100251.59;;;9.47;38.21
47726;BME280;33483;48.294;16.388;2023-03-16T13:32:25;100256.16;;;9.50;37.30
47726;BME280;33483;48.294;16.388;2023-03-16T13:34:56;100252.13;;;9.34;36.97
47726;BME280;33483;48.294;16.388;2023-03-16T13:37:26;100248.34;;;9.32;37.39
47726;BME280;33483;48.294;16.388;2023-03-16T13:40:03;100249.84;;;9.22;36.43
47726;BME280;33483;48.294;16.388;2023-03-16T13:42:31;100238.25;;;9.12;37.17
47726;BME280;33483;48.294;16.388;2023-03-16T13:45:06;100238.50;;;9.14;37.31
47726;BME280;33483;48.294;16.388;2023-03-16T13:47:40;100230.69;;;9.01;36.99
47726;BME280;33483;48.294;16.388;2023-03-16T13:50:12;100233.97;;;9.05;36.73
47726;BME280;33483;48.294;16.388;2023-03-16T13:52:42;100230.94;;;9.03;36.17
47726;BME280;33483;48.294;16.388;2023-03-16T13:55:16;100246.03;;;9.02;36.49
47726;BME280;33483;48.294;16.388;2023-03-16T13:57:46;100230.94;;;8.98;35.22
47726;BME280;33483;48.294;16.388;2023-03-16T14:00:17;100235.47;;;8.95;35.71
47726;BME280;33483;48.294;16.388;2023-03-16T14:02:50;100236.22;;;9.01;36.32
47726;BME280;33483;48.294;16.388;2023-03-16T14:05:19;100236.00;;;8.99;36.00
47726;BME280;33483;48.294;16.388;2023-03-16T14:07:50;100227.69;;;9.10;37.80
47726;BME280;33483;48.294;16.388;2023-03-16T14:10:18;100226.19;;;9.04;36.44
47726;BME280;33483;48.294;16.388;2023-03-16T14:12:53;100231.22;;;9.11;36.18
47726;BME280;33483;48.294;16.388;2023-03-16T14:15:21;100225.72;;;9.17;35.94
47726;BME280;33483;48.294;16.388;2023-03-16T14:17:52;100222.94;;;9.17;36.28
47726;BME280;33483;48.294;16.388;2023-03-16T14:20:20;100223.69;;;9.23;36.05
47726;BME280;33483;48.294;16.388;2023-03-16T14:22:51;100226.22;;;9.15;35.70
47726;BME280;33483;48.294;16.388;2023-03-16T14:25:22;100226.44;;;9.00;35.96